Time;durP1;ratioP1;P1;durP2;ratioP2;P2;SDS_P1;SDS_P2;PMS_P1;PMS_P2;Temp;Humidity;BMP_temperature;BMP_pressure;BME280_temperature;BME280_humidity;BME280_pressure;Samples;Min_cycle;Max_cycle;Signal;HPM_P1;HPM_P2
2023/07/26 00:02:17;;;;;;;3.67;2.30;;;20.00;89.20;;;;;;5083409;28;20556;-75
2023/07/26 00:04:43;;;;;;;7.38;2.60;;;20.00;89.30;;;;;;5073054;28;20520;-75
2023/07/26 00:07:08;;;;;;;3.25;2.47;;;20.10;89.30;;;;;;5073209;28;20473;-74
2023/07/26 00:09:34;;;;;;;4.55;2.45;;;20.00;89.30;;;;;;5073089;28;20404;-74
2023/07/26 00:11:59;;;;;;;3.67;2.13;;;20.00;89.50;;;;;;5073017;28;20021;-71
2023/07/26 00:14:25;;;;;;;5.53;2.78;;;20.00;89.50;;;;;;5073059;28;20024;-74
2023/07/26 00:16:51;;;;;;;6.18;2.50;;;20.00;89.70;;;;;;5072766;28;20086;-74
2023/07/26 00:19:19;;;;;;;5.13;2.55;;;20.00;89.90;;;;;;5073051;28;20036;-74
2023/07/26 00:21:45;;;;;;;4.38;2.78;;;19.90;89.80;;;;;;5072907;28;20051;-74
2023/07/26 00:24:11;;;;;;;6.32;2.58;;;19.90;89.80;;;;;;5072998;28;20016;-74
2023/07/26 00:26:36;;;;;;;5.78;2.60;;;20.00;89.90;;;;;;5072853;28;20119;-75
2023/07/26 00:29:02;;;;;;;5.10;2.38;;;19.90;89.90;;;;;;5072764;28;20032;-74
2023/07/26 00:31:27;;;;;;;4.78;2.40;;;19.80;90.00;;;;;;5085197;28;20027;-74
2023/07/26 00:33:53;;;;;;;4.60;2.03;;;19.80;90.20;;;;;;5091079;28;20028;-74
2023/07/26 00:36:18;;;;;;;4.63;2.50;;;19.80;90.20;;;;;;5092728;28;20028;-74
2023/07/26 00:38:44;;;;;;;3.50;2.28;;;19.80;90.20;;;;;;5093104;28;20407;-74
2023/07/26 00:41:09;;;;;;;8.43;2.60;;;19.70;90.30;;;;;;5092800;28;20043;-74
2023/07/26 00:43:35;;;;;;;4.35;2.50;;;19.80;90.30;;;;;;5092759;28;20020;-75
2023/07/26 00:46:01;;;;;;;4.35;2.58;;;19.70;90.30;;;;;;5093054;28;20365;-75
2023/07/26 00:48:27;;;;;;;4.63;2.38;;;19.70;90.40;;;;;;5092784;28;20052;-75
2023/07/26 00:50:53;;;;;;;3.67;2.22;;;19.70;90.50;;;;;;5092931;28;20027;-74
2023/07/26 00:53:19;;;;;;;5.53;2.83;;;19.60;90.50;;;;;;5092906;28;20027;-75
2023/07/26 00:55:45;;;;;;;4.82;2.55;;;19.60;90.60;;;;;;5092764;28;20036;-74
2023/07/26 00:58:11;;;;;;;3.78;2.40;;;19.60;90.60;;;;;;5092630;28;20491;-75
2023/07/26 01:00:40;;;;;;;4.07;2.67;;;19.60;90.70;;;;;;5095618;28;20515;-75
2023/07/26 01:03:06;;;;;;;4.78;2.40;;;19.50;90.70;;;;;;5095897;28;20135;-74
2023/07/26 01:05:39;;;;;;;5.43;2.80;;;19.50;90.80;;;;;;5095344;28;20064;-75
2023/07/26 01:08:21;;;;;;;5.35;2.60;;;19.50;90.80;;;;;;5096539;28;20028;-71
2023/07/26 01:10:58;;;;;;;5.25;3.05;;;19.50;90.80;;;;;;5096462;28;20111;-74
2023/07/26 01:13:29;;;;;;;6.07;2.20;;;19.50;90.90;;;;;;5096928;28;20052;-74
2023/07/26 01:15:56;;;;;;;4.90;2.40;;;19.40;91.00;;;;;;5097588;28;20063;-74
2023/07/26 01:18:22;;;;;;;4.55;2.80;;;19.40;91.10;;;;;;5096311;28;20032;-73
2023/07/26 01:20:47;;;;;;;6.35;2.75;;;19.40;91.10;;;;;;5092136;28;20039;-74
2023/07/26 01:23:13;;;;;;;4.43;2.63;;;19.40;91.10;;;;;;5075646;28;20024;-75
2023/07/26 01:25:38;;;;;;;5.15;2.30;;;19.40;91.20;;;;;;5074277;28;20024;-74
2023/07/26 01:28:04;;;;;;;4.50;3.13;;;19.40;91.10;;;;;;5075403;28;20025;-75
2023/07/26 01:30:32;;;;;;;5.28;2.63;;;19.30;91.20;;;;;;5075763;28;20029;-73
2023/07/26 01:33:03;;;;;;;7.32;2.55;;;19.30;91.20;;;;;;5075554;28;20028;-74
2023/07/26 01:35:29;;;;;;;4.40;2.67;;;19.30;91.30;;;;;;5075721;28;20021;-74
2023/07/26 01:37:56;;;;;;;8.02;2.53;;;19.30;91.40;;;;;;5075542;28;20017;-74
2023/07/26 01:40:22;;;;;;;4.45;2.55;;;19.30;91.40;;;;;;5075502;28;20111;-74
2023/07/26 01:42:48;;;;;;;6.25;2.78;;;19.20;91.50;;;;;;5075305;28;20024;-74
2023/07/26 01:45:14;;;;;;;5.22;3.00;;;19.20;91.60;;;;;;5075721;28;20127;-74
2023/07/26 01:47:40;;;;;;;5.00;2.30;;;19.20;91.50;;;;;;5075460;28;20434;-74
2023/07/26 01:50:07;;;;;;;2.83;2.17;;;19.30;91.60;;;;;;5075773;28;20488;-74
2023/07/26 01:52:33;;;;;;;5.38;3.28;;;19.20;91.60;;;;;;5075080;28;20090;-74
2023/07/26 01:54:58;;;;;;;4.88;2.97;;;19.20;91.60;;;;;;5075523;28;20021;-74
2023/07/26 01:57:25;;;;;;;4.20;2.47;;;19.20;91.70;;;;;;5075034;28;20078;-74
2023/07/26 01:59:51;;;;;;;5.40;2.50;;;19.20;91.70;;;;;;5076229;28;20067;-74
2023/07/26 02:02:17;;;;;;;5.15;2.90;;;19.20;91.80;;;;;;5095307;28;20203;-74
2023/07/26 02:04:43;;;;;;;5.32;3.03;;;19.10;91.90;;;;;;5095094;28;20448;-72
2023/07/26 02:07:09;;;;;;;3.70;2.55;;;19.10;92.10;;;;;;5095394;28;20051;-74
2023/07/26 02:09:34;;;;;;;6.07;2.72;;;19.10;92.10;;;;;;5094967;28;20464;-74
2023/07/26 02:12:00;;;;;;;4.05;2.33;;;19.00;92.10;;;;;;5095129;28;20111;-74
2023/07/26 02:14:25;;;;;;;4.38;2.90;;;19.00;92.20;;;;;;5094989;28;20483;-73
2023/07/26 02:16:51;;;;;;;6.13;2.83;;;19.00;92.20;;;;;;5095518;28;20032;-73
2023/07/26 02:19:16;;;;;;;4.35;2.83;;;19.00;92.20;;;;;;5092827;28;20031;-74
2023/07/26 02:21:43;;;;;;;4.15;2.90;;;19.00;92.30;;;;;;5074785;28;20036;-73
2023/07/26 02:24:08;;;;;;;6.38;3.13;;;19.00;92.40;;;;;;5074867;28;20024;-74
2023/07/26 02:26:34;;;;;;;4.97;2.83;;;18.90;92.40;;;;;;5074513;28;20505;-74
2023/07/26 02:28:59;;;;;;;4.45;2.80;;;18.90;92.50;;;;;;5074770;28;20361;-74
2023/07/26 02:31:25;;;;;;;5.55;2.67;;;18.90;92.50;;;;;;5074571;28;20025;-75
2023/07/26 02:33:50;;;;;;;6.05;2.65;;;18.90;92.70;;;;;;5074510;28;20025;-74
2023/07/26 02:36:16;;;;;;;5.18;2.45;;;18.90;92.70;;;;;;5074579;28;20020;-74
2023/07/26 02:38:41;;;;;;;4.60;2.50;;;18.80;92.80;;;;;;5074453;28;20062;-74
2023/07/26 02:41:07;;;;;;;4.68;2.53;;;18.90;92.80;;;;;;5074152;28;20032;-74
2023/07/26 02:43:32;;;;;;;4.88;2.75;;;18.80;92.90;;;;;;5074260;28;20040;-73
2023/07/26 02:45:58;;;;;;;5.43;3.05;;;18.80;93.00;;;;;;5074565;28;20025;-74
2023/07/26 02:48:23;;;;;;;7.28;3.35;;;18.80;93.00;;;;;;5073017;28;20020;-74
2023/07/26 02:50:49;;;;;;;5.10;2.78;;;18.80;93.00;;;;;;5087544;28;20020;-75
2023/07/26 02:53:14;;;;;;;8.15;3.25;;;18.80;93.00;;;;;;5093699;28;20091;-74
2023/07/26 02:55:44;;;;;;;4.85;3.10;;;18.80;93.10;;;;;;5094209;28;20097;-74
2023/07/26 02:58:10;;;;;;;4.38;2.95;;;18.80;93.20;;;;;;5094348;28;20024;-74
2023/07/26 03:00:36;;;;;;;6.28;3.28;;;18.80;93.20;;;;;;5093994;28;20412;-74
2023/07/26 03:03:01;;;;;;;6.68;3.33;;;18.80;93.20;;;;;;5094450;28;20028;-75
2023/07/26 03:05:28;;;;;;;6.45;3.15;;;18.70;93.20;;;;;;5093824;28;20028;-75
2023/07/26 03:07:53;;;;;;;7.50;2.83;;;18.70;93.30;;;;;;5090553;28;20381;-74
2023/07/26 03:10:19;;;;;;;5.65;3.38;;;18.70;93.40;;;;;;5073635;28;20519;-74
2023/07/26 03:12:45;;;;;;;6.25;3.00;;;18.70;93.50;;;;;;5073936;28;20389;-73
2023/07/26 03:15:10;;;;;;;5.13;3.15;;;18.70;93.50;;;;;;5073657;28;20549;-74
2023/07/26 03:17:36;;;;;;;6.32;3.30;;;18.70;93.60;;;;;;5073708;28;20028;-75
2023/07/26 03:20:03;;;;;;;4.95;3.08;;;18.60;93.60;;;;;;5073769;28;20384;-74
2023/07/26 03:22:28;;;;;;;6.13;3.35;;;18.60;93.70;;;;;;5071598;28;20947;-73
2023/07/26 03:24:54;;;;;;;8.27;3.65;;;18.60;93.80;;;;;;5073268;28;20029;-74
2023/07/26 03:27:19;;;;;;;5.40;3.35;;;18.60;94.00;;;;;;5073678;28;20027;-74
2023/07/26 03:29:45;;;;;;;9.35;3.30;;;18.60;94.20;;;;;;5073770;28;20108;-73
2023/07/26 03:32:11;;;;;;;5.10;3.33;;;18.50;94.20;;;;;;5073724;28;20024;-73
2023/07/26 03:34:36;;;;;;;4.40;3.28;;;18.50;94.30;;;;;;5073290;28;20457;-74
2023/07/26 03:37:02;;;;;;;7.45;3.85;;;18.50;94.40;;;;;;5081986;28;20024;-74
2023/07/26 03:39:28;;;;;;;7.05;3.55;;;18.50;94.50;;;;;;5094169;28;20031;-74
2023/07/26 03:41:53;;;;;;;8.77;3.78;;;18.50;94.50;;;;;;5093377;28;20532;-73
2023/07/26 03:44:19;;;;;;;5.60;3.40;;;18.50;94.60;;;;;;5093406;28;20369;-71
2023/07/26 03:46:45;;;;;;;7.60;3.42;;;18.50;94.70;;;;;;5093600;28;20476;-70
2023/07/26 03:49:11;;;;;;;8.73;3.53;;;18.50;94.80;;;;;;5093303;28;20013;-70
2023/07/26 03:51:36;;;;;;;6.00;3.55;;;18.60;94.90;;;;;;5087724;28;20115;-70
2023/07/26 03:54:02;;;;;;;7.32;3.67;;;18.50;94.90;;;;;;5073955;28;20039;-70
2023/07/26 03:56:28;;;;;;;9.10;4.13;;;18.50;94.90;;;;;;5087602;28;20119;-70
2023/07/26 03:58:53;;;;;;;7.72;3.92;;;18.50;95.00;;;;;;5078739;28;20396;-73
2023/07/26 04:01:19;;;;;;;8.27;3.95;;;18.50;95.00;;;;;;5092641;28;20469;-74
2023/07/26 04:03:44;;;;;;;7.30;3.63;;;18.50;95.10;;;;;;5075760;28;20024;-73
2023/07/26 04:06:13;;;;;;;6.55;3.45;;;18.50;95.10;;;;;;5082752;28;20024;-73
2023/07/26 04:08:40;;;;;;;6.05;3.67;;;18.50;95.20;;;;;;5078052;28;20036;-73
2023/07/26 04:11:06;;;;;;;7.75;3.80;;;18.50;95.20;;;;;;5073013;28;20021;-73
2023/07/26 04:13:32;;;;;;;6.30;3.47;;;18.40;95.20;;;;;;5072894;28;20099;-73
2023/07/26 04:15:58;;;;;;;6.88;3.75;;;18.40;95.30;;;;;;5072930;28;20099;-73
2023/07/26 04:18:24;;;;;;;10.27;4.70;;;18.40;95.40;;;;;;5072615;28;20017;-73
2023/07/26 04:20:49;;;;;;;5.80;3.92;;;18.30;95.40;;;;;;5075848;28;20037;-73
2023/07/26 04:23:15;;;;;;;8.50;4.18;;;18.40;95.50;;;;;;5072832;28;20427;-74
2023/07/26 04:25:40;;;;;;;7.68;3.92;;;18.30;95.50;;;;;;5072755;28;20036;-74
2023/07/26 04:28:06;;;;;;;7.25;3.88;;;18.30;95.50;;;;;;5073132;28;20020;-73
2023/07/26 04:30:32;;;;;;;10.85;4.30;;;18.40;95.50;;;;;;5072697;28;20060;-73
2023/07/26 04:32:57;;;;;;;8.90;3.67;;;18.30;95.60;;;;;;5073673;28;20025;-73
2023/07/26 04:35:23;;;;;;;9.07;4.13;;;18.30;95.70;;;;;;5076170;28;20028;-73
2023/07/26 04:37:49;;;;;;;6.95;4.18;;;18.30;95.70;;;;;;5088135;28;20085;-74
2023/07/26 04:40:15;;;;;;;6.82;3.85;;;18.40;95.80;;;;;;5072252;28;20031;-73
2023/07/26 04:42:40;;;;;;;11.93;4.60;;;18.30;95.80;;;;;;5076024;28;20028;-71
2023/07/26 04:45:06;;;;;;;7.75;4.15;;;18.30;95.20;;;;;;5075877;28;20107;-71
2023/07/26 04:47:33;;;;;;;5.63;4.18;;;18.60;94.60;;;;;;5076531;28;20033;-71
2023/07/26 04:49:59;;;;;;;7.40;4.20;;;18.70;94.40;;;;;;5076628;28;20481;-71
2023/07/26 04:52:24;;;;;;;6.55;4.38;;;18.80;94.40;;;;;;5076130;28;20035;-71
2023/07/26 04:54:50;;;;;;;13.45;3.90;;;18.80;94.40;;;;;;5080591;28;20530;-77
2023/07/26 04:57:15;;;;;;;7.15;4.05;;;18.90;94.70;;;;;;5080508;28;20024;-68
2023/07/26 04:59:41;;;;;;;5.93;3.33;;;19.00;94.90;;;;;;5078379;28;20500;-69
2023/07/26 05:02:06;;;;;;;7.22;3.03;;;18.90;94.80;;;;;;5075709;28;20489;-67
2023/07/26 05:04:32;;;;;;;8.00;3.92;;;19.00;94.80;;;;;;5075811;28;20477;-67
2023/07/26 05:06:57;;;;;;;10.30;4.85;;;19.00;94.90;;;;;;5075185;28;20029;-68
2023/07/26 05:09:23;;;;;;;8.00;4.53;;;19.00;95.10;;;;;;5075866;28;20020;-68
2023/07/26 05:11:48;;;;;;;6.85;4.22;;;19.00;95.20;;;;;;5075892;28;20028;-68
2023/07/26 05:14:14;;;;;;;7.05;4.07;;;18.90;95.50;;;;;;5076269;28;20039;-68
2023/07/26 05:16:40;;;;;;;6.63;4.28;;;18.80;95.70;;;;;;5075652;28;20025;-68
2023/07/26 05:19:05;;;;;;;6.95;4.25;;;18.80;95.70;;;;;;5075868;28;20044;-67
2023/07/26 05:21:31;;;;;;;8.82;4.43;;;18.80;95.80;;;;;;5075954;28;20083;-68
2023/07/26 05:23:57;;;;;;;9.38;4.93;;;18.90;95.90;;;;;;5076119;28;20013;-69
2023/07/26 05:26:22;;;;;;;8.85;5.10;;;18.90;96.00;;;;;;5075827;28;20037;-68
2023/07/26 05:28:48;;;;;;;11.15;4.80;;;18.80;96.10;;;;;;5075745;28;20059;-67
2023/07/26 05:31:13;;;;;;;7.80;5.03;;;18.80;96.20;;;;;;5075849;28;20416;-67
2023/07/26 05:33:39;;;;;;;10.82;5.43;;;18.90;96.20;;;;;;5075414;28;20461;-67
2023/07/26 05:36:06;;;;;;;10.27;5.10;;;18.90;96.30;;;;;;5075854;28;20024;-67
2023/07/26 05:38:31;;;;;;;9.40;4.95;;;18.90;96.30;;;;;;5075625;28;20017;-68
2023/07/26 05:41:06;;;;;;;9.40;5.13;;;18.80;96.40;;;;;;5075721;28;20048;-68
2023/07/26 05:43:32;;;;;;;9.75;5.32;;;18.80;96.50;;;;;;5075487;28;20486;-67
2023/07/26 05:45:58;;;;;;;8.93;5.95;;;18.90;96.50;;;;;;5074820;28;20017;-68
2023/07/26 05:48:24;;;;;;;9.30;5.20;;;18.90;96.60;;;;;;5075186;28;20519;-68
2023/07/26 05:50:50;;;;;;;8.68;4.85;;;18.90;96.70;;;;;;5075478;28;20029;-68
2023/07/26 05:53:15;;;;;;;7.07;5.05;;;18.90;96.90;;;;;;5075520;28;20016;-68
2023/07/26 05:55:41;;;;;;;9.18;4.75;;;19.00;97.00;;;;;;5075516;28;20047;-68
2023/07/26 05:58:06;;;;;;;11.68;5.45;;;19.00;96.80;;;;;;5075656;28;20385;-68
2023/07/26 06:00:32;;;;;;;7.82;5.13;;;19.00;96.90;;;;;;5076078;28;20032;-67
2023/07/26 06:02:57;;;;;;;7.22;5.03;;;19.10;97.20;;;;;;5075200;28;20127;-67
2023/07/26 06:05:24;;;;;;;7.90;5.00;;;19.10;97.00;;;;;;5075306;28;20028;-67
2023/07/26 06:07:50;;;;;;;9.05;5.40;;;19.10;97.00;;;;;;5075096;28;20115;-68
2023/07/26 06:10:16;;;;;;;10.65;5.00;;;19.10;97.00;;;;;;5075141;28;20017;-67
2023/07/26 06:12:41;;;;;;;9.10;5.30;;;19.20;97.00;;;;;;5074974;28;20036;-67
2023/07/26 06:15:07;;;;;;;9.07;5.18;;;19.20;97.00;;;;;;5075043;28;20533;-67
2023/07/26 06:17:33;;;;;;;11.98;6.68;;;19.20;97.00;;;;;;5074616;28;20025;-68
2023/07/26 06:19:59;;;;;;;10.60;5.68;;;19.20;97.10;;;;;;5075013;28;20028;-67
2023/07/26 06:22:24;;;;;;;9.32;5.65;;;19.30;97.10;;;;;;5074716;28;20037;-67
2023/07/26 06:24:50;;;;;;;9.63;6.20;;;19.30;97.00;;;;;;5074676;28;20027;-67
2023/07/26 06:27:22;;;;;;;8.55;5.88;;;19.30;96.90;;;;;;5074819;28;20052;-67
2023/07/26 06:29:48;;;;;;;12.45;6.70;;;19.30;97.00;;;;;;5074570;28;20115;-67
2023/07/26 06:32:13;;;;;;;11.13;5.70;;;19.30;97.00;;;;;;5074756;28;20111;-67
2023/07/26 06:34:39;;;;;;;9.48;6.82;;;19.40;96.80;;;;;;5074444;28;20021;-67
2023/07/26 06:37:05;;;;;;;8.52;6.97;;;19.40;96.80;;;;;;5074628;28;20546;-67
2023/07/26 06:39:30;;;;;;;11.85;7.68;;;19.40;96.70;;;;;;5074389;28;20416;-67
2023/07/26 06:41:56;;;;;;;9.65;7.70;;;19.40;96.70;;;;;;5074451;28;20067;-67
2023/07/26 06:44:21;;;;;;;10.48;7.57;;;19.40;96.60;;;;;;5074309;28;20021;-73
2023/07/26 06:46:47;;;;;;;13.75;8.25;;;19.40;96.60;;;;;;5074016;28;20120;-73
2023/07/26 06:49:12;;;;;;;11.10;7.82;;;19.40;96.50;;;;;;5073137;28;20373;-72
2023/07/26 06:51:38;;;;;;;11.38;7.28;;;19.40;96.60;;;;;;5073023;28;20037;-72
2023/07/26 06:54:03;;;;;;;13.75;7.38;;;19.50;96.70;;;;;;5074131;28;20024;-73
2023/07/26 06:56:29;;;;;;;13.63;7.35;;;19.50;96.60;;;;;;5074154;28;20033;-73
2023/07/26 06:58:54;;;;;;;11.35;7.28;;;19.50;96.80;;;;;;5072543;28;20048;-67
2023/07/26 07:01:20;;;;;;;10.63;7.45;;;19.60;97.00;;;;;;5073840;28;20036;-67
2023/07/26 07:03:46;;;;;;;12.50;6.40;;;19.70;97.20;;;;;;5073865;28;20111;-67
2023/07/26 07:06:12;;;;;;;10.27;5.53;;;19.70;97.20;;;;;;5074140;28;20473;-67
2023/07/26 07:08:38;;;;;;;11.38;6.30;;;19.80;96.90;;;;;;5073841;28;20028;-67
2023/07/26 07:11:03;;;;;;;9.57;6.43;;;19.80;96.60;;;;;;5073979;28;20077;-67
2023/07/26 07:13:29;;;;;;;8.85;5.72;;;19.90;96.40;;;;;;5073783;28;20023;-67
2023/07/26 07:15:54;;;;;;;7.65;6.05;;;19.90;96.20;;;;;;5073553;28;20355;-67
2023/07/26 07:18:20;;;;;;;10.73;6.10;;;19.90;96.00;;;;;;5073799;28;20113;-67
2023/07/26 07:20:45;;;;;;;7.53;4.18;;;20.00;96.20;;;;;;5082255;28;20480;-67
2023/07/26 07:23:11;;;;;;;9.27;5.30;;;20.00;95.80;;;;;;5088110;28;20543;-67
2023/07/26 07:25:38;;;;;;;7.47;5.50;;;20.00;95.80;;;;;;5074925;28;20554;-67
2023/07/26 07:28:04;;;;;;;9.13;5.35;;;20.10;95.70;;;;;;5073720;28;20096;-67
2023/07/26 07:30:30;;;;;;;9.20;5.40;;;20.10;95.60;;;;;;5081963;28;20056;-71
2023/07/26 07:32:56;;;;;;;9.48;5.38;;;20.10;95.50;;;;;;5093698;28;20082;-72
2023/07/26 07:35:21;;;;;;;9.18;5.35;;;20.20;95.70;;;;;;5082632;28;20599;-72
2023/07/26 07:37:47;;;;;;;7.03;5.32;;;20.20;95.80;;;;;;5083024;28;20071;-72
2023/07/26 07:40:13;;;;;;;8.75;5.18;;;20.30;96.00;;;;;;5078738;28;20472;-68
2023/07/26 07:42:38;;;;;;;11.77;5.80;;;20.30;96.10;;;;;;5073432;28;20477;-70
2023/07/26 07:45:04;;;;;;;6.72;4.55;;;20.40;96.10;;;;;;5072243;28;20059;-66
2023/07/26 07:47:30;;;;;;;6.25;3.97;;;20.40;95.80;;;;;;5087932;28;20181;-66
2023/07/26 07:49:56;;;;;;;7.68;3.92;;;20.50;95.40;;;;;;5080793;28;20473;-66
2023/07/26 07:52:21;;;;;;;6.22;3.90;;;20.50;95.30;;;;;;5072233;28;20496;-66
2023/07/26 07:54:47;;;;;;;5.82;3.80;;;20.50;95.40;;;;;;5075247;28;20029;-67
2023/07/26 07:57:13;;;;;;;5.95;3.97;;;20.60;95.00;;;;;;5082882;28;20067;-67
2023/07/26 07:59:39;;;;;;;5.75;3.80;;;20.60;94.80;;;;;;5079048;28;20032;-67
2023/07/26 08:02:05;;;;;;;6.35;3.83;;;20.70;94.50;;;;;;5078416;28;20085;-67
2023/07/26 08:04:31;;;;;;;6.53;3.60;;;20.70;94.30;;;;;;5078830;28;20029;-67
2023/07/26 08:06:56;;;;;;;5.85;3.42;;;20.80;94.10;;;;;;5083018;28;20103;-66
2023/07/26 08:09:22;;;;;;;4.97;3.40;;;20.80;93.80;;;;;;5080494;28;20028;-66
2023/07/26 08:11:47;;;;;;;6.25;3.20;;;20.80;93.70;;;;;;5077692;28;20111;-66
2023/07/26 08:14:13;;;;;;;6.00;3.70;;;20.90;93.60;;;;;;5073233;28;20722;-67
2023/07/26 08:16:38;;;;;;;6.35;3.33;;;20.90;93.30;;;;;;5081118;28;20103;-66
2023/07/26 08:19:04;;;;;;;4.53;3.20;;;20.90;93.20;;;;;;5077297;28;20038;-66
2023/07/26 08:21:29;;;;;;;6.43;2.92;;;21.00;93.10;;;;;;5089180;28;20044;-67
2023/07/26 08:23:55;;;;;;;8.65;3.55;;;21.10;93.00;;;;;;5092989;28;20020;-67
2023/07/26 08:26:21;;;;;;;5.45;2.83;;;21.10;93.00;;;;;;5093034;28;20028;-67
2023/07/26 08:28:47;;;;;;;4.50;2.78;;;21.10;92.90;;;;;;5092787;28;20377;-66
2023/07/26 08:31:13;;;;;;;3.50;2.90;;;21.10;92.70;;;;;;5092783;28;20028;-67
2023/07/26 08:33:39;;;;;;;4.20;2.70;;;21.20;92.60;;;;;;5083966;28;20388;-66
2023/07/26 08:36:04;;;;;;;4.03;2.40;;;21.20;92.60;;;;;;5092937;28;20059;-66
2023/07/26 08:38:30;;;;;;;4.15;2.72;;;21.20;92.30;;;;;;5085264;28;20051;-66
2023/07/26 08:40:55;;;;;;;3.80;2.95;;;21.20;92.30;;;;;;5074683;28;20028;-66
2023/07/26 08:43:23;;;;;;;6.05;2.85;;;21.30;92.30;;;;;;5077351;28;20021;-66
2023/07/26 08:45:50;;;;;;;4.00;2.72;;;21.30;92.20;;;;;;5078842;28;20017;-67
2023/07/26 08:48:18;;;;;;;4.20;2.88;;;21.30;92.10;;;;;;5081066;28;20044;-68
2023/07/26 08:50:44;;;;;;;4.18;3.00;;;21.30;92.00;;;;;;5077716;28;20481;-66
2023/07/26 08:53:10;;;;;;;4.18;2.88;;;21.30;91.80;;;;;;5072225;28;20032;-66
2023/07/26 08:55:36;;;;;;;4.55;2.95;;;21.40;91.80;;;;;;5075906;28;20099;-66
2023/07/26 08:58:03;;;;;;;5.97;3.10;;;21.40;91.30;;;;;;5086553;28;20501;-67
2023/07/26 09:00:29;;;;;;;6.50;3.28;;;21.50;91.30;;;;;;5088338;28;20028;-66
2023/07/26 09:02:59;;;;;;;5.90;3.17;;;21.50;91.00;;;;;;5079037;28;20055;-66
2023/07/26 09:05:25;;;;;;;5.38;3.00;;;21.50;91.10;;;;;;5071514;28;20077;-65
2023/07/26 09:07:51;;;;;;;3.65;2.90;;;21.50;91.10;;;;;;5073305;28;20028;-65
2023/07/26 09:10:27;;;;;;;4.47;2.58;;;21.50;91.00;;;;;;5071425;28;20020;-66
2023/07/26 09:13:08;;;;;;;2.75;1.92;;;21.50;91.00;;;;;;5073314;28;20447;-66
2023/07/26 09:15:38;;;;;;;4.15;2.88;;;21.60;90.90;;;;;;5074853;28;20021;-66
2023/07/26 09:18:06;;;;;;;5.57;3.22;;;21.60;90.50;;;;;;5087889;28;20027;-66
2023/07/26 09:20:33;;;;;;;5.50;2.97;;;21.60;90.20;;;;;;5071504;28;20017;-66
2023/07/26 09:23:05;;;;;;;4.50;2.53;;;21.60;90.30;;;;;;5091120;28;20039;-66
2023/07/26 09:25:32;;;;;;;4.40;2.75;;;21.60;90.10;;;;;;5083032;28;20048;-67
2023/07/26 09:28:01;;;;;;;5.30;2.38;;;21.60;90.20;;;;;;5079816;28;20067;-66
2023/07/26 09:30:27;;;;;;;4.28;2.90;;;21.70;89.30;;;;;;5074752;28;20421;-70
2023/07/26 09:32:56;;;;;;;4.05;2.25;;;21.70;89.20;;;;;;5079561;28;20032;-69
2023/07/26 09:35:22;;;;;;;3.03;2.22;;;21.70;88.60;;;;;;5075597;28;20017;-71
2023/07/26 09:37:48;;;;;;;4.72;3.10;;;21.70;88.60;;;;;;5078669;28;20027;-71
2023/07/26 09:40:13;;;;;;;2.35;1.95;;;21.70;88.10;;;;;;5081646;28;20021;-71
2023/07/26 09:42:43;;;;;;;4.55;2.55;;;21.70;88.10;;;;;;5085201;28;20085;-72
2023/07/26 09:45:21;;;;;;;3.15;2.22;;;21.70;87.80;;;;;;5094590;28;20032;-67
2023/07/26 09:47:48;;;;;;;3.97;2.33;;;21.70;87.90;;;;;;5094259;28;20119;-67
2023/07/26 09:50:27;;;;;;;7.03;2.13;;;21.70;87.50;;;;;;5087459;28;20021;-71
2023/07/26 09:52:56;;;;;;;2.60;2.17;;;21.80;87.30;;;;;;5078451;28;20028;-71
2023/07/26 09:55:26;;;;;;;4.03;2.80;;;21.70;87.40;;;;;;5079703;28;20051;-71
2023/07/26 09:57:54;;;;;;;8.25;3.40;;;21.70;87.40;;;;;;5083137;28;20074;-71
2023/07/26 10:00:25;;;;;;;6.10;4.40;;;21.70;87.70;;;;;;5079180;28;20066;-73
2023/07/26 10:02:58;;;;;;;6.45;3.58;;;21.80;87.50;;;;;;5074989;28;20047;-72
2023/07/26 10:05:33;;;;;;;5.25;2.75;;;21.80;87.80;;;;;;5077921;28;20020;-73
2023/07/26 10:08:00;;;;;;;3.35;2.58;;;21.90;84.60;;;;;;5080677;28;20388;-72
2023/07/26 10:10:27;;;;;;;5.50;3.35;;;22.00;85.00;;;;;;5083449;28;20108;-74
2023/07/26 10:12:56;;;;;;;3.90;3.13;;;21.90;86.00;;;;;;5082886;28;20020;-73
2023/07/26 10:15:22;;;;;;;4.50;2.35;;;21.90;85.20;;;;;;5086888;28;20024;-71
2023/07/26 10:17:50;;;;;;;7.22;3.50;;;22.00;85.10;;;;;;5082551;28;20055;-75
2023/07/26 10:20:15;;;;;;;6.00;3.25;;;22.00;86.00;;;;;;5073336;28;20047;-75
2023/07/26 10:22:42;;;;;;;5.07;3.05;;;22.00;86.40;;;;;;5078564;28;20128;-74
2023/07/26 10:25:08;;;;;;;5.97;3.00;;;22.00;85.90;;;;;;5073124;28;20021;-74
2023/07/26 10:27:35;;;;;;;4.38;2.85;;;22.00;86.30;;;;;;5075631;28;20162;-73
2023/07/26 10:30:01;;;;;;;5.63;2.50;;;22.00;85.60;;;;;;5081869;28;20423;-75
2023/07/26 10:32:27;;;;;;;5.00;3.33;;;22.00;86.10;;;;;;5077129;28;20094;-75
2023/07/26 10:34:56;;;;;;;5.80;2.67;;;22.10;87.30;;;;;;5081048;28;20067;-75
2023/07/26 10:37:23;;;;;;;6.97;3.17;;;22.10;88.00;;;;;;5076357;28;20021;-76
2023/07/26 10:39:49;;;;;;;4.72;2.90;;;22.10;88.10;;;;;;5073640;28;20029;-75
2023/07/26 10:42:26;;;;;;;7.00;3.38;;;22.10;87.60;;;;;;5080789;28;20416;-70
2023/07/26 10:45:03;;;;;;;7.85;4.78;;;22.10;87.70;;;;;;5087335;28;20061;-74
2023/07/26 10:47:29;;;;;;;7.45;5.13;;;22.20;88.40;;;;;;5085120;28;20046;-75
2023/07/26 10:50:03;;;;;;;5.78;4.63;;;22.10;88.10;;;;;;5073080;28;20031;-73
2023/07/26 10:52:36;;;;;;;7.28;5.03;;;22.20;87.60;;;;;;5079204;28;20076;-75
2023/07/26 10:55:29;;;;;;;5.88;4.15;;;22.20;87.60;;;;;;5088341;28;20078;-76
2023/07/26 10:57:58;;;;;;;6.38;3.85;;;22.20;85.80;;;;;;5080730;28;20032;-76
2023/07/26 11:00:34;;;;;;;7.38;4.05;;;22.20;84.80;;;;;;5074324;28;20029;-75
2023/07/26 11:03:01;;;;;;;5.18;3.20;;;22.20;84.50;;;;;;5079912;28;20042;-75
2023/07/26 11:05:29;;;;;;;6.18;3.20;;;22.20;83.80;;;;;;5079237;28;20380;-76
2023/07/26 11:08:05;;;;;;;4.63;2.90;;;22.30;83.20;;;;;;5073491;28;20024;-76
2023/07/26 11:10:38;;;;;;;6.60;3.28;;;22.30;82.70;;;;;;5075021;28;20473;-76
2023/07/26 11:13:18;;;;;;;6.97;3.03;;;22.20;82.70;;;;;;5078238;28;20489;-76
2023/07/26 11:15:45;;;;;;;3.95;2.33;;;22.30;83.00;;;;;;5077124;28;20040;-75
2023/07/26 11:18:11;;;;;;;4.53;2.17;;;22.30;82.50;;;;;;5078895;28;20032;-74
2023/07/26 11:20:48;;;;;;;2.88;2.53;;;22.30;82.80;;;;;;5077728;28;20025;-74
2023/07/26 11:23:20;;;;;;;5.22;2.85;;;22.30;83.20;;;;;;5077288;28;20048;-73
2023/07/26 11:25:48;;;;;;;6.38;2.30;;;22.40;82.90;;;;;;5080374;28;20058;-73
2023/07/26 11:28:14;;;;;;;4.32;2.40;;;22.30;82.30;;;;;;5082118;28;20037;-74
2023/07/26 11:30:45;;;;;;;3.40;2.33;;;22.40;82.50;;;;;;5071774;28;20108;-74
2023/07/26 11:33:10;;;;;;;3.90;2.33;;;22.40;81.90;;;;;;5076244;28;20052;-70
2023/07/26 11:35:43;;;;;;;3.95;2.28;;;22.40;82.10;;;;;;5077249;28;20021;-73
2023/07/26 11:38:13;;;;;;;;;;;22.40;82.10;;;;;;5077108;28;20048;-73
2023/07/26 11:40:43;;;;;;;3.53;2.47;;;22.50;82.40;;;;;;5090714;28;19918;-75
2023/07/26 11:43:09;;;;;;;4.15;2.45;;;22.40;81.60;;;;;;5085106;28;20381;-75
2023/07/26 11:45:41;;;;;;;3.03;2.50;;;22.50;82.20;;;;;;5078178;28;20477;-75
2023/07/26 11:48:10;;;;;;;;;;;22.50;81.00;;;;;;5074806;28;20027;-74
2023/07/26 11:50:37;;;;;;;4.05;2.13;;;22.60;81.30;;;;;;5075968;28;19912;-74
2023/07/26 11:53:07;;;;;;;4.90;2.25;;;22.60;81.40;;;;;;5079348;28;20023;-75
2023/07/26 11:55:34;;;;;;;5.05;2.20;;;22.60;79.80;;;;;;5081434;28;20104;-75
2023/07/26 11:58:04;;;;;;;1.92;1.65;;;22.60;80.40;;;;;;5073512;28;20124;-75
2023/07/26 12:00:32;;;;;;;2.55;1.92;;;22.60;80.90;;;;;;5079129;28;20471;-75
2023/07/26 12:03:01;;;;;;;3.15;2.13;;;22.60;80.80;;;;;;5069573;28;20427;-71
2023/07/26 12:05:28;;;;;;;3.58;2.50;;;22.60;81.10;;;;;;5071707;28;20561;-80
2023/07/26 12:07:56;;;;;;;3.78;1.92;;;22.60;81.50;;;;;;5078455;28;20071;-78
2023/07/26 12:10:37;;;;;;;3.95;1.90;;;22.70;81.20;;;;;;5078653;28;20070;-78
2023/07/26 12:13:08;;;;;;;3.65;2.08;;;22.70;80.20;;;;;;5074285;28;20381;-76
2023/07/26 12:15:53;;;;;;;4.83;2.17;;;22.80;78.50;;;;;;5071575;28;20432;-78
2023/07/26 12:18:23;;;;;;;3.55;2.15;;;22.80;79.60;;;;;;5074292;28;20588;-78
2023/07/26 12:20:56;;;;;;;3.10;2.17;;;22.80;80.60;;;;;;5077554;28;20059;-79
2023/07/26 12:23:22;;;;;;;3.08;1.80;;;22.80;80.70;;;;;;5074542;28;20102;-79
2023/07/26 12:25:56;;;;;;;3.20;2.20;;;22.80;80.00;;;;;;5078872;28;20051;-78
2023/07/26 12:28:24;;;;;;;2.75;1.80;;;22.90;79.60;;;;;;5075652;28;20110;-79
2023/07/26 12:30:57;;;;;;;3.95;1.90;;;22.90;79.60;;;;;;5072613;28;20466;-77
2023/07/26 12:33:26;;;;;;;4.32;1.90;;;22.90;78.60;;;;;;5073744;28;20032;-75
2023/07/26 12:35:54;;;;;;;6.75;2.10;;;22.90;78.20;;;;;;5076618;28;20043;-72
2023/07/26 12:38:21;;;;;;;5.25;2.10;;;22.90;79.10;;;;;;5077639;28;20491;-77
2023/07/26 12:40:48;;;;;;;3.85;1.90;;;22.90;78.80;;;;;;5081141;28;20067;-76
2023/07/26 12:43:28;;;;;;;2.58;2.00;;;22.90;78.40;;;;;;5071376;28;20028;-77
2023/07/26 12:45:58;;;;;;;5.55;2.03;;;22.90;78.20;;;;;;5070652;28;20073;-77